Main page
METAR-TAF:

METAR-TAF

Airports :

Uzhhorod International Airport

Uzhhorod, Ukraine

latitude: 48-38-05N, longitude: 022-15-53E, elevation: 117 m

Current weather observation

The report was made 24 minutes ago, at 10:30 UTC
Wind 4 kt from the East/Southeast, varying between Northeast and South/Southeast
Temperature -1°C
Humidity 93%
Pressure 1031 hPa
Visibility: 6000 m
Overcast at a height of 900 ft
(light) freezing, drizzle

METAR: UKLU 221030Z 11002MPS 040V150 6000 -FZDZ OVC009 M01/M02 Q1031 R10/790218 NOSIG

Time: 12:54 (10:54 UTC)

Forecast

The report was made 2 hours and 2 minutes ago, at 08:52 UTC
Forecast valid from 22 at 09 UTC to 22 at 18 UTC
Wind 6 kt from the Southeast
Visibility 10 km or more
Overcast at a height of 1500 ft
Temporary
from 22 at 09 UTC to 22 at 15 UTC
Wind 12 kt from the South
Visibility: 2100 m
Overcast at a height of 500 ft
(light) freezing, drizzle, mist

TAF: UKLU 220852Z 2209/2218 13003MPS 9999 OVC015 TXM00/2212Z TNM01/2218Z TEMPO 2209/2215 17006MPS 2100 -FZDZ BR OVC005

Weather observations and forecasts of more than 4000 airports (METAR and TAF reports).

The available stations are represented by yellow and red dots on the map.

Hover mouse over dot to see the name of the station.

Then click to see weather observations and forecasts.

To change the map : click on the green buttons with a black cross to zoom in, on the green button with a dash to zoom out, or on the green arrows for adjacent maps.


METAR-TAF: